createdAt,value
2018-11-11T00:55:48.170Z,11.70
2018-11-11T00:58:16.321Z,11.90
2018-11-11T01:00:44.519Z,11.80
2018-11-11T01:03:12.648Z,11.80
2018-11-11T01:05:40.874Z,11.80
2018-11-11T01:08:09.047Z,11.90
2018-11-11T01:10:37.245Z,11.90
2018-11-11T01:13:05.606Z,11.90
2018-11-11T01:15:33.803Z,11.90
2018-11-11T01:18:01.977Z,11.90
2018-11-11T01:20:30.125Z,12.00
2018-11-11T01:22:58.330Z,12.00
2018-11-11T01:25:26.505Z,12.00
2018-11-11T01:27:54.700Z,12.00
2018-11-11T01:30:22.849Z,12.00
2018-11-11T01:32:50.988Z,12.10
2018-11-11T01:35:19.158Z,12.10
2018-11-11T01:37:47.290Z,12.20
2018-11-11T01:40:15.452Z,12.30
2018-11-11T01:42:43.693Z,12.40
2018-11-11T01:45:14.579Z,12.30
2018-11-11T01:47:43.163Z,12.30
2018-11-11T01:50:12.285Z,12.30
2018-11-11T01:52:40.737Z,12.30
2018-11-11T01:55:09.837Z,12.20
2018-11-11T01:57:38.371Z,12.20
2018-11-11T02:00:08.952Z,12.20
2018-11-11T02:02:37.309Z,12.10
2018-11-11T02:05:06.830Z,12.10
2018-11-11T02:07:35.035Z,12.10
2018-11-11T02:10:03.624Z,12.20
2018-11-11T02:12:31.915Z,12.20
2018-11-11T02:15:00.124Z,12.20
2018-11-11T02:17:29.546Z,12.20
2018-11-11T02:19:58.157Z,12.20
2018-11-11T02:22:26.434Z,12.20
2018-11-11T02:24:54.646Z,12.10
2018-11-11T02:27:22.843Z,12.10
2018-11-11T02:29:51.061Z,12.10
2018-11-11T02:32:19.309Z,12.00
2018-11-11T02:34:47.530Z,12.00
2018-11-11T02:37:15.790Z,12.00
2018-11-11T02:39:44.034Z,12.00
2018-11-11T02:42:12.213Z,12.00
2018-11-11T02:44:40.433Z,11.90
2018-11-11T02:47:08.701Z,11.90
2018-11-11T02:49:36.933Z,11.90
2018-11-11T02:52:05.383Z,11.90
2018-11-11T02:54:33.668Z,11.90
2018-11-11T02:57:02.026Z,11.90
2018-11-11T02:59:30.243Z,11.90
2018-11-11T03:01:58.476Z,11.90
2018-11-11T03:04:26.718Z,11.80
2018-11-11T03:06:54.912Z,11.60
2018-11-11T03:09:23.119Z,11.50
2018-11-11T03:11:51.351Z,11.40
2018-11-11T03:14:19.602Z,11.30
2018-11-11T03:16:47.820Z,11.30
2018-11-11T03:19:15.990Z,11.30
2018-11-11T03:21:44.227Z,11.30
2018-11-11T03:24:12.341Z,11.30
2018-11-11T03:26:40.548Z,11.20
2018-11-11T03:29:08.746Z,11.20
2018-11-11T03:31:36.909Z,11.30
2018-11-11T03:34:05.379Z,11.30
2018-11-11T03:36:33.615Z,11.30
2018-11-11T03:39:01.865Z,11.20
2018-11-11T03:41:30.076Z,11.20
2018-11-11T03:43:58.269Z,11.20
2018-11-11T03:46:26.511Z,11.20
2018-11-11T03:48:54.710Z,11.20
2018-11-11T03:51:22.879Z,11.30
2018-11-11T03:53:51.052Z,11.20
2018-11-11T03:56:19.287Z,11.20
2018-11-11T03:58:47.538Z,11.20
2018-11-11T04:01:15.720Z,11.20
2018-11-11T04:03:43.913Z,11.20
2018-11-11T04:06:12.152Z,11.20
2018-11-11T04:08:40.352Z,11.20
2018-11-11T04:11:08.539Z,11.20
2018-11-11T04:13:36.779Z,11.20
2018-11-11T04:16:05.040Z,11.20
2018-11-11T04:18:33.283Z,11.20
2018-11-11T04:21:01.543Z,11.20
2018-11-11T04:23:29.740Z,11.20
2018-11-11T04:25:57.956Z,11.20
2018-11-11T04:28:26.192Z,11.20
2018-11-11T04:30:54.437Z,11.20
2018-11-11T04:33:22.610Z,11.10
2018-11-11T04:35:50.843Z,11.10
2018-11-11T04:38:19.076Z,11.10
2018-11-11T04:40:47.271Z,11.10
2018-11-11T04:43:15.405Z,11.10
2018-11-11T04:45:43.633Z,11.00
2018-11-11T04:48:11.849Z,10.90
2018-11-11T04:50:40.054Z,10.90
2018-11-11T04:53:08.240Z,10.90
2018-11-11T04:55:36.419Z,10.80
2018-11-11T04:58:04.789Z,10.70
2018-11-11T05:00:33.003Z,10.60
2018-11-11T05:03:01.276Z,10.50
2018-11-11T05:05:29.456Z,10.40
2018-11-11T05:07:57.674Z,10.40
2018-11-11T05:10:26.847Z,10.40
2018-11-11T05:12:54.985Z,10.40
2018-11-11T05:15:23.216Z,10.40
2018-11-11T05:17:51.424Z,10.50
2018-11-11T05:20:19.681Z,10.50
2018-11-11T05:22:47.874Z,10.50
2018-11-11T05:25:16.072Z,10.50
2018-11-11T05:27:44.632Z,10.50
2018-11-11T05:30:13.609Z,10.60
2018-11-11T05:32:41.836Z,10.70
2018-11-11T05:35:10.839Z,10.80
2018-11-11T05:37:39.495Z,10.80
2018-11-11T05:40:08.611Z,10.90
2018-11-11T05:42:36.849Z,11.00
2018-11-11T05:45:06.279Z,11.00
2018-11-11T05:47:34.461Z,11.00
2018-11-11T05:50:02.793Z,11.10
2018-11-11T05:52:30.969Z,11.10
2018-11-11T05:54:59.197Z,11.20
2018-11-11T05:57:27.388Z,11.20
2018-11-11T05:59:55.603Z,11.20
2018-11-11T06:02:23.841Z,11.20
2018-11-11T06:04:52.085Z,11.20
2018-11-11T06:07:20.264Z,11.20
2018-11-11T06:09:48.443Z,11.30
2018-11-11T06:12:16.611Z,11.30
2018-11-11T06:14:44.742Z,11.30
2018-11-11T06:17:12.914Z,11.30
2018-11-11T06:19:41.064Z,11.30
2018-11-11T06:22:09.246Z,11.30
2018-11-11T06:24:37.413Z,11.40
2018-11-11T06:27:05.800Z,11.40
2018-11-11T06:29:34.003Z,11.50
2018-11-11T06:32:02.316Z,11.50
2018-11-11T06:34:30.484Z,11.50
2018-11-11T06:36:58.759Z,11.50
2018-11-11T06:39:26.926Z,11.50
2018-11-11T06:41:55.110Z,11.50
2018-11-11T06:44:23.264Z,11.50
2018-11-11T06:46:51.452Z,11.50
2018-11-11T06:49:19.759Z,11.40
2018-11-11T06:51:48.020Z,11.40
2018-11-11T06:54:16.356Z,11.50
2018-11-11T06:56:44.560Z,11.50
2018-11-11T06:59:12.744Z,11.50
2018-11-11T07:01:40.891Z,11.50
2018-11-11T07:04:09.090Z,11.60
2018-11-11T07:06:37.228Z,11.60
2018-11-11T07:09:06.586Z,11.60
2018-11-11T07:11:34.817Z,11.70
2018-11-11T07:14:03.305Z,11.70
2018-11-11T07:16:31.505Z,11.80
2018-11-11T07:18:59.783Z,11.80
2018-11-11T07:21:28.056Z,11.80
2018-11-11T07:23:56.354Z,11.80
2018-11-11T07:26:24.724Z,11.80
2018-11-11T07:28:52.964Z,11.70
2018-11-11T07:31:21.182Z,11.80
2018-11-11T07:33:49.504Z,11.80
2018-11-11T07:36:17.690Z,11.80
2018-11-11T07:38:45.933Z,11.70
2018-11-11T07:41:14.192Z,11.70
2018-11-11T07:43:42.374Z,11.60
2018-11-11T07:46:10.595Z,11.60
2018-11-11T07:48:38.830Z,11.60
2018-11-11T07:51:07.212Z,11.60
2018-11-11T07:53:35.489Z,11.60
2018-11-11T07:56:04.044Z,11.60
2018-11-11T07:58:32.326Z,11.70
2018-11-11T08:01:00.515Z,11.80
2018-11-11T08:03:28.965Z,11.80
2018-11-11T08:05:57.192Z,11.80
2018-11-11T08:08:25.426Z,11.80
2018-11-11T08:11:04.731Z,11.80
2018-11-11T08:13:33.082Z,11.80
2018-11-11T08:16:01.278Z,11.80
2018-11-11T08:18:29.548Z,11.90
2018-11-11T08:20:57.784Z,11.90
2018-11-11T08:23:25.973Z,11.80
2018-11-11T08:25:54.191Z,11.70
2018-11-11T08:28:22.445Z,11.80
2018-11-11T08:30:50.628Z,11.80
2018-11-11T08:33:18.814Z,11.90
2018-11-11T08:35:46.999Z,11.90
2018-11-11T08:38:15.185Z,12.10
2018-11-11T08:40:43.429Z,12.20
2018-11-11T08:43:11.584Z,12.30
2018-11-11T08:45:39.769Z,12.30
2018-11-11T08:48:07.994Z,12.40
2018-11-11T08:50:36.205Z,12.40
2018-11-11T08:53:04.418Z,12.60
2018-11-11T08:55:32.545Z,12.70
2018-11-11T08:58:00.815Z,12.70
2018-11-11T09:00:28.998Z,12.60
2018-11-11T09:02:58.325Z,12.60
2018-11-11T09:05:28.798Z,12.60
2018-11-11T09:07:57.703Z,12.70
2018-11-11T09:10:27.023Z,12.70
2018-11-11T09:12:55.198Z,12.90
2018-11-11T09:15:23.424Z,13.00
2018-11-11T09:17:51.592Z,13.20
2018-11-11T09:20:19.806Z,13.20
2018-11-11T09:22:47.992Z,13.20
2018-11-11T09:25:16.311Z,13.20
2018-11-11T09:27:44.473Z,13.20
2018-11-11T09:30:13.829Z,13.20
2018-11-11T09:32:42.206Z,13.20
2018-11-11T09:35:10.518Z,13.10
2018-11-11T09:37:39.298Z,13.10
2018-11-11T09:40:08.725Z,13.10
2018-11-11T09:42:36.967Z,13.10
2018-11-11T09:45:07.700Z,13.10
2018-11-11T09:47:35.985Z,13.10
2018-11-11T09:50:05.930Z,13.10
2018-11-11T09:52:34.208Z,13.10
2018-11-11T09:55:02.438Z,13.10
2018-11-11T09:57:30.630Z,13.10
2018-11-11T09:59:58.950Z,13.10
2018-11-11T10:02:27.172Z,13.10
2018-11-11T10:05:00.796Z,13.10
2018-11-11T10:07:35.952Z,13.00
2018-11-11T10:10:10.406Z,13.00
2018-11-11T10:12:44.853Z,13.00
2018-11-11T10:15:19.137Z,13.00
2018-11-11T10:18:06.742Z,13.00
2018-11-11T10:20:43.303Z,13.10
2018-11-11T10:23:20.376Z,13.00
2018-11-11T10:25:54.251Z,13.00
2018-11-11T10:28:30.658Z,13.10
2018-11-11T10:31:04.450Z,13.10
2018-11-11T10:33:38.188Z,13.10
2018-11-11T10:36:12.103Z,13.10
2018-11-11T10:39:10.716Z,13.10
2018-11-11T10:41:58.293Z,13.10
2018-11-11T10:44:31.456Z,13.10
2018-11-11T10:47:02.848Z,13.20
2018-11-11T10:49:52.877Z,13.20
2018-11-11T10:52:21.534Z,13.20
2018-11-11T10:54:49.979Z,13.20
2018-11-11T10:57:20.383Z,13.20
2018-11-11T10:59:48.801Z,13.20
2018-11-11T11:02:19.474Z,13.20
2018-11-11T11:04:53.311Z,13.30
2018-11-11T11:07:21.617Z,13.30
2018-11-11T11:15:30.333Z,13.30
2018-11-11T11:17:58.635Z,13.30
2018-11-11T11:20:26.907Z,13.30
2018-11-11T11:22:55.264Z,13.30
2018-11-11T11:25:23.481Z,13.30
2018-11-11T11:27:51.961Z,13.40
2018-11-11T11:30:20.546Z,13.40
2018-11-11T11:32:50.198Z,13.40
2018-11-11T11:35:19.070Z,13.40
2018-11-11T11:37:47.650Z,13.40
2018-11-11T11:40:16.182Z,13.40
2018-11-11T11:42:44.603Z,13.40
2018-11-11T11:45:12.875Z,13.40
2018-11-11T11:47:41.732Z,13.40
2018-11-11T11:50:12.492Z,13.40
2018-11-11T11:52:41.435Z,13.40
2018-11-11T11:57:38.546Z,13.50
2018-11-11T12:00:09.292Z,13.50
2018-11-11T12:02:37.735Z,13.60
2018-11-11T12:05:07.223Z,13.60
2018-11-11T12:07:35.627Z,13.60
2018-11-11T12:10:05.228Z,13.70
2018-11-11T12:12:33.625Z,13.70
2018-11-11T12:47:06.654Z,13.90
2018-11-11T12:54:30.963Z,14.00
2018-11-11T12:56:59.201Z,14.20
2018-11-11T12:59:27.469Z,14.40
2018-11-11T13:01:55.691Z,14.30
2018-11-11T13:04:23.975Z,14.10
2018-11-11T13:06:52.181Z,14.10
2018-11-11T13:09:20.403Z,14.30
2018-11-11T13:11:48.662Z,14.50
2018-11-11T13:26:36.790Z,14.80
2018-11-11T13:29:05.185Z,14.50
2018-11-11T13:31:33.338Z,14.20
2018-11-11T13:34:01.477Z,14.20
2018-11-11T13:36:29.637Z,14.40
2018-11-11T13:38:57.848Z,14.20
2018-11-11T13:41:26.001Z,14.10
2018-11-11T13:43:54.176Z,14.00
2018-11-11T13:46:22.423Z,13.80
2018-11-11T13:48:50.628Z,13.70
2018-11-11T13:51:18.811Z,13.60
2018-11-11T13:53:47.067Z,13.60
2018-11-11T13:56:15.882Z,13.60
2018-11-11T13:58:57.547Z,13.70
2018-11-11T14:01:25.759Z,13.80
2018-11-11T14:03:56.213Z,13.70
2018-11-11T14:06:24.828Z,14.00
2018-11-11T14:08:53.035Z,14.10
2018-11-11T14:11:21.266Z,14.10
2018-11-11T14:13:49.453Z,14.00
2018-11-11T14:16:17.678Z,13.90
2018-11-11T14:18:46.064Z,13.80
2018-11-11T14:21:14.146Z,13.70
2018-11-11T14:23:42.294Z,13.70
2018-11-11T14:26:10.512Z,13.70
2018-11-11T14:28:38.768Z,13.70
2018-11-11T14:31:06.939Z,13.70
2018-11-11T14:33:35.122Z,13.60
2018-11-11T14:36:03.415Z,13.50
2018-11-11T14:38:31.664Z,13.50
2018-11-11T14:40:59.919Z,13.50
2018-11-11T14:43:28.083Z,13.40
2018-11-11T14:45:56.382Z,13.40
2018-11-11T14:48:24.611Z,13.30
2018-11-11T14:50:52.820Z,13.30
2018-11-11T14:53:21.080Z,13.30
2018-11-11T14:55:49.307Z,13.20
2018-11-11T14:58:17.938Z,13.20
2018-11-11T15:00:46.252Z,13.20
2018-11-11T15:03:15.976Z,13.10
2018-11-11T15:05:44.195Z,13.10
2018-11-11T15:08:12.482Z,13.10
2018-11-11T15:10:40.692Z,13.00
2018-11-11T15:13:10.080Z,13.00
2018-11-11T15:18:06.734Z,12.80
2018-11-11T15:20:36.324Z,12.80
2018-11-11T15:23:04.708Z,12.70
2018-11-11T15:25:33.082Z,12.60
2018-11-11T15:28:01.189Z,12.60
2018-11-11T15:30:30.672Z,12.60
2018-11-11T15:32:59.483Z,12.60
2018-11-11T15:35:27.685Z,12.60
2018-11-11T15:40:49.286Z,12.50
2018-11-11T15:43:17.519Z,12.60
2018-11-11T15:45:45.993Z,12.60
2018-11-11T15:48:14.512Z,12.60
2018-11-11T15:50:42.790Z,12.60
2018-11-11T15:53:11.443Z,12.60
2018-11-11T15:55:40.711Z,12.50
2018-11-11T15:58:09.478Z,12.50
2018-11-11T16:00:39.666Z,12.50
2018-11-11T16:03:08.284Z,12.50
2018-11-11T16:05:37.121Z,12.50
2018-11-11T16:08:05.983Z,12.50
2018-11-11T16:10:35.038Z,12.40
2018-11-11T16:13:03.791Z,12.40
2018-11-11T16:15:36.108Z,12.30
2018-11-11T16:18:06.928Z,12.30
2018-11-11T16:20:36.603Z,12.20
2018-11-11T16:23:06.197Z,12.30
2018-11-11T16:25:36.579Z,12.30
2018-11-11T16:28:05.463Z,12.20
2018-11-11T16:30:35.439Z,12.20
2018-11-11T16:33:04.177Z,12.10
2018-11-11T16:35:32.968Z,12.10
2018-11-11T16:38:01.693Z,11.90
2018-11-11T16:40:32.524Z,11.90
2018-11-11T16:43:01.400Z,11.70
2018-11-11T16:45:31.233Z,11.60
2018-11-11T16:48:01.364Z,11.50
2018-11-11T16:50:31.092Z,11.40
2018-11-11T16:53:00.961Z,11.30
2018-11-11T16:55:30.707Z,11.30
2018-11-11T16:57:59.221Z,11.20
2018-11-11T17:00:28.945Z,11.10
2018-11-11T17:02:58.638Z,11.00
2018-11-11T17:05:28.613Z,11.00
2018-11-11T17:07:57.326Z,11.00
2018-11-11T17:10:27.362Z,10.90
2018-11-11T17:12:57.286Z,10.80
2018-11-11T17:15:27.854Z,10.70
2018-11-11T17:17:56.489Z,10.70
2018-11-11T17:20:26.054Z,10.70
2018-11-11T17:22:56.100Z,10.70
2018-11-11T17:25:25.576Z,10.70
2018-11-11T17:27:54.561Z,10.70
2018-11-11T17:30:25.411Z,10.70
2018-11-11T17:32:54.649Z,10.70
2018-11-11T17:35:23.319Z,10.70
2018-11-11T17:37:51.721Z,10.70
2018-11-11T17:40:28.346Z,10.60
2018-11-11T17:42:57.672Z,10.50
2018-11-11T17:45:27.229Z,10.50
2018-11-11T17:47:56.258Z,10.40
2018-11-11T17:50:28.864Z,10.40
2018-11-11T17:52:57.618Z,10.30
2018-11-11T17:55:26.523Z,10.20
2018-11-11T17:57:54.847Z,10.20
2018-11-11T18:00:24.201Z,10.20
2018-11-11T18:02:52.740Z,10.00
2018-11-11T18:05:22.163Z,10.00
2018-11-11T18:07:50.431Z,10.00
2018-11-11T18:10:19.924Z,10.00
2018-11-11T18:12:48.243Z,10.00
2018-11-11T18:15:18.080Z,10.00
2018-11-11T18:17:46.511Z,9.90
2018-11-11T18:20:22.625Z,9.80
2018-11-11T18:22:51.579Z,9.70
2018-11-11T18:25:19.869Z,9.60
2018-11-11T18:27:48.248Z,9.80
2018-11-11T18:30:20.194Z,9.70
2018-11-11T18:32:48.724Z,9.70
2018-11-11T18:35:17.715Z,9.50
2018-11-11T18:37:46.004Z,9.40
2018-11-11T18:40:15.614Z,9.20
2018-11-11T18:42:43.960Z,9.00
2018-11-11T18:45:13.881Z,8.90
2018-11-11T18:47:42.284Z,8.80
2018-11-11T18:50:13.311Z,8.70
2018-11-11T18:52:41.522Z,8.70
2018-11-11T18:55:10.262Z,8.60
2018-11-11T18:57:38.873Z,8.60
2018-11-11T19:00:09.795Z,8.50
2018-11-11T19:02:38.102Z,8.60
2018-11-11T19:05:07.557Z,8.50
2018-11-11T19:07:35.815Z,8.50
2018-11-11T19:10:04.840Z,8.60
2018-11-11T19:12:32.993Z,8.80
2018-11-11T19:15:01.240Z,9.00
2018-11-11T19:17:29.426Z,9.10
2018-11-11T19:19:57.655Z,9.10
2018-11-11T19:22:26.085Z,9.20
2018-11-11T19:24:54.504Z,9.20
2018-11-11T19:27:22.922Z,9.40
2018-11-11T19:29:51.555Z,9.50
2018-11-11T19:32:20.269Z,9.50
2018-11-11T19:34:49.312Z,9.60
2018-11-11T19:37:17.814Z,9.50
2018-11-11T19:39:46.573Z,9.50
2018-11-11T19:42:14.953Z,9.50
2018-11-11T19:44:43.191Z,9.50
2018-11-11T19:47:11.411Z,9.60
2018-11-11T19:49:39.780Z,9.60
2018-11-11T19:52:08.573Z,9.70
2018-11-11T19:54:36.798Z,9.70
2018-11-11T19:57:05.280Z,9.70
2018-11-11T19:59:33.491Z,9.80
2018-11-11T20:02:01.724Z,9.70
2018-11-11T20:04:29.946Z,9.60
2018-11-11T20:06:58.244Z,9.50
2018-11-11T20:09:26.477Z,9.40
2018-11-11T20:11:54.693Z,9.40
2018-11-11T20:14:22.991Z,9.40
2018-11-11T20:16:51.213Z,9.40
2018-11-11T20:19:19.444Z,9.40
2018-11-11T20:21:47.725Z,9.30
2018-11-11T20:24:16.134Z,9.20
2018-11-11T20:26:44.328Z,9.30
2018-11-11T20:29:12.604Z,9.30
2018-11-11T20:31:41.943Z,9.40
2018-11-11T20:34:10.186Z,9.50
2018-11-11T20:36:38.407Z,9.40
2018-11-11T20:39:09.451Z,9.40
2018-11-11T20:41:37.721Z,9.50
2018-11-11T20:44:06.521Z,9.50
2018-11-11T20:46:35.329Z,9.60
2018-11-11T20:49:03.700Z,9.70
2018-11-11T20:51:31.877Z,9.80
2018-11-11T20:54:00.913Z,9.70
2018-11-11T20:56:29.202Z,9.70
2018-11-11T20:58:57.431Z,9.70
2018-11-11T21:01:25.692Z,9.70
2018-11-11T21:03:54.015Z,9.70
2018-11-11T21:06:22.266Z,9.70
2018-11-11T21:08:50.518Z,9.80
2018-11-11T21:11:18.891Z,9.80
2018-11-11T21:13:47.275Z,9.80
2018-11-11T21:16:15.648Z,9.80
2018-11-11T21:18:43.899Z,9.80
2018-11-11T21:21:12.324Z,9.80
2018-11-11T21:23:40.589Z,9.80
2018-11-11T21:26:08.844Z,9.80
2018-11-11T21:28:37.136Z,9.90
2018-11-11T21:31:05.394Z,10.10
2018-11-11T21:33:33.722Z,10.10
2018-11-11T21:36:01.964Z,10.10
2018-11-11T21:38:30.379Z,9.90
2018-11-11T21:40:58.648Z,9.90
2018-11-11T21:43:26.943Z,9.80
2018-11-11T21:45:55.208Z,9.80
2018-11-11T21:48:23.480Z,9.90
2018-11-11T21:50:51.730Z,9.90
2018-11-11T21:53:40.006Z,10.00
2018-11-11T21:56:08.551Z,10.00
2018-11-11T21:58:36.794Z,9.90
2018-11-11T22:01:05.483Z,10.00
2018-11-11T22:03:34.733Z,9.90
2018-11-11T22:06:02.958Z,9.90
2018-11-11T22:08:31.632Z,10.00
2018-11-11T22:10:59.914Z,9.90
2018-11-11T22:13:28.246Z,10.00
2018-11-11T22:15:56.585Z,10.10
2018-11-11T22:18:24.873Z,10.10
2018-11-11T22:20:53.118Z,10.10
2018-11-11T22:23:21.402Z,10.10
2018-11-11T22:25:49.718Z,10.10
2018-11-11T22:28:17.972Z,10.20
2018-11-11T22:30:46.179Z,10.20
2018-11-11T22:33:14.429Z,10.20
2018-11-11T22:35:42.653Z,10.20
2018-11-11T22:38:10.854Z,10.30
2018-11-11T22:40:39.052Z,10.40
2018-11-11T22:43:07.352Z,10.20
2018-11-11T22:45:35.599Z,10.20
2018-11-11T22:48:03.851Z,10.30
2018-11-11T22:50:32.069Z,10.30
2018-11-11T22:53:00.362Z,10.30
2018-11-11T22:55:28.768Z,10.30
2018-11-11T22:57:56.953Z,10.30
2018-11-11T23:00:29.194Z,10.30
2018-11-11T23:02:57.599Z,10.20
2018-11-11T23:05:25.875Z,10.10
2018-11-11T23:07:54.066Z,10.10
2018-11-11T23:10:22.522Z,10.20
2018-11-11T23:12:50.753Z,10.20
2018-11-11T23:15:20.229Z,10.30
2018-11-11T23:17:48.403Z,10.20
2018-11-11T23:20:17.866Z,10.30
2018-11-11T23:22:46.163Z,10.40
2018-11-11T23:25:15.525Z,10.30
2018-11-11T23:27:43.735Z,10.40
2018-11-11T23:30:15.062Z,10.40
2018-11-11T23:32:43.466Z,10.40
2018-11-11T23:35:11.667Z,10.40
2018-11-11T23:37:40.391Z,10.40
2018-11-11T23:40:10.139Z,10.40
2018-11-11T23:42:38.653Z,10.40
2018-11-11T23:45:07.000Z,10.40
2018-11-11T23:47:35.213Z,10.40
2018-11-11T23:50:03.571Z,10.40
2018-11-11T23:52:31.746Z,10.30
2018-11-11T23:54:59.916Z,10.30
2018-11-11T23:57:28.175Z,10.20
2018-11-11T23:59:56.351Z,10.20
